sensor_id;sensor_type;location;lat;lon;timestamp;pressure;altitude;pressure_sealevel;temperature;humidity
59043;BME280;44826;51.596;5.624;2022-12-29T00:01:22;99983.16;;;9.35;97.49
59043;BME280;44826;51.596;5.624;2022-12-29T00:03:47;99975.34;;;9.37;97.51
59043;BME280;44826;51.596;5.624;2022-12-29T00:06:13;99988.34;;;9.35;97.28
59043;BME280;44826;51.596;5.624;2022-12-29T00:08:38;99977.19;;;9.33;97.39
59043;BME280;44826;51.596;5.624;2022-12-29T00:11:11;99970.25;;;9.34;96.85
59043;BME280;44826;51.596;5.624;2022-12-29T00:13:37;99982.34;;;9.35;96.93
59043;BME280;44826;51.596;5.624;2022-12-29T00:16:21;99982.28;;;9.36;96.03
59043;BME280;44826;51.596;5.624;2022-12-29T00:18:47;99990.84;;;9.38;95.72
59043;BME280;44826;51.596;5.624;2022-12-29T00:21:14;99984.78;;;9.39;95.57
59043;BME280;44826;51.596;5.624;2022-12-29T00:23:58;99967.59;;;9.35;95.34
59043;BME280;44826;51.596;5.624;2022-12-29T00:26:42;99967.66;;;9.34;95.18
59043;BME280;44826;51.596;5.624;2022-12-29T00:29:26;99948.88;;;9.27;95.40
59043;BME280;44826;51.596;5.624;2022-12-29T00:32:10;99956.69;;;9.25;95.10
59043;BME280;44826;51.596;5.624;2022-12-29T00:34:53;99955.22;;;9.18;95.30
59043;BME280;44826;51.596;5.624;2022-12-29T00:37:39;99965.69;;;9.15;95.52
59043;BME280;44826;51.596;5.624;2022-12-29T00:40:24;99966.66;;;9.13;95.58
59043;BME280;44826;51.596;5.624;2022-12-29T00:43:22;99960.69;;;9.09;96.04
59043;BME280;44826;51.596;5.624;2022-12-29T00:46:05;99955.63;;;9.06;96.51
59043;BME280;44826;51.596;5.624;2022-12-29T00:48:30;99949.66;;;9.04;96.91
59043;BME280;44826;51.596;5.624;2022-12-29T00:51:14;99948.00;;;9.01;97.18
59043;BME280;44826;51.596;5.624;2022-12-29T00:53:40;99943.75;;;8.99;97.84
59043;BME280;44826;51.596;5.624;2022-12-29T00:56:05;99940.38;;;8.96;98.21
59043;BME280;44826;51.596;5.624;2022-12-29T00:58:30;99926.59;;;8.94;98.60
59043;BME280;44826;51.596;5.624;2022-12-29T01:01:03;99929.25;;;8.93;99.06
59043;BME280;44826;51.596;5.624;2022-12-29T01:03:29;99930.09;;;8.93;99.26
59043;BME280;44826;51.596;5.624;2022-12-29T01:05:54;99924.06;;;8.93;99.74
59043;BME280;44826;51.596;5.624;2022-12-29T01:08:20;99916.22;;;8.94;99.88
59043;BME280;44826;51.596;5.624;2022-12-29T01:10:45;99918.78;;;8.96;100.00
59043;BME280;44826;51.596;5.624;2022-12-29T01:13:10;99915.25;;;8.97;100.00
59043;BME280;44826;51.596;5.624;2022-12-29T01:15:35;99912.63;;;8.99;100.00
59043;BME280;44826;51.596;5.624;2022-12-29T01:18:01;99921.22;;;9.01;100.00
59043;BME280;44826;51.596;5.624;2022-12-29T01:20:26;99899.50;;;9.03;100.00
59043;BME280;44826;51.596;5.624;2022-12-29T01:22:53;99895.16;;;9.04;100.00
59043;BME280;44826;51.596;5.624;2022-12-29T01:25:18;99901.13;;;9.06;100.00
59043;BME280;44826;51.596;5.624;2022-12-29T01:27:44;99911.47;;;9.07;100.00
59043;BME280;44826;51.596;5.624;2022-12-29T01:30:09;99901.88;;;9.09;100.00
59043;BME280;44826;51.596;5.624;2022-12-29T01:32:35;99907.00;;;9.11;100.00
59043;BME280;44826;51.596;5.624;2022-12-29T01:35:00;99889.66;;;9.13;100.00
59043;BME280;44826;51.596;5.624;2022-12-29T01:37:25;99896.53;;;9.14;100.00
59043;BME280;44826;51.596;5.624;2022-12-29T01:39:50;99880.97;;;9.14;99.90
59043;BME280;44826;51.596;5.624;2022-12-29T01:42:17;99881.88;;;9.13;99.77
59043;BME280;44826;51.596;5.624;2022-12-29T01:44:47;99877.56;;;9.12;99.57
59043;BME280;44826;51.596;5.624;2022-12-29T01:47:20;99878.38;;;9.14;99.20
59043;BME280;44826;51.596;5.624;2022-12-29T01:49:47;99886.94;;;9.16;98.95
59043;BME280;44826;51.596;5.624;2022-12-29T01:52:13;99889.53;;;9.16;98.91
59043;BME280;44826;51.596;5.624;2022-12-29T01:54:44;99895.47;;;9.20;98.45
59043;BME280;44826;51.596;5.624;2022-12-29T01:57:17;99883.28;;;9.22;97.95
59043;BME280;44826;51.596;5.624;2022-12-29T01:59:50;99881.47;;;9.24;97.95
59043;BME280;44826;51.596;5.624;2022-12-29T02:02:18;99894.28;;;9.29;97.23
59043;BME280;44826;51.596;5.624;2022-12-29T02:04:43;99892.50;;;9.31;97.05
59043;BME280;44826;51.596;5.624;2022-12-29T02:07:21;99891.47;;;9.35;96.80
59043;BME280;44826;51.596;5.624;2022-12-29T02:09:48;99886.13;;;9.39;96.25
59043;BME280;44826;51.596;5.624;2022-12-29T02:12:15;99889.44;;;9.43;95.56
59043;BME280;44826;51.596;5.624;2022-12-29T02:14:41;99878.94;;;9.46;95.46
59043;BME280;44826;51.596;5.624;2022-12-29T02:20:02;99883.03;;;9.53;94.01
59043;BME280;44826;51.596;5.624;2022-12-29T02:31:15;99904.31;;;9.63;93.27
59043;BME280;44826;51.596;5.624;2022-12-29T02:33:54;99889.50;;;9.65;92.00
59043;BME280;44826;51.596;5.624;2022-12-29T02:36:33;99892.84;;;9.69;92.22
59043;BME280;44826;51.596;5.624;2022-12-29T02:47:16;99885.69;;;9.74;91.24
59043;BME280;44826;51.596;5.624;2022-12-29T02:49:51;99883.19;;;9.72;91.14
59043;BME280;44826;51.596;5.624;2022-12-29T02:52:30;99864.16;;;9.72;91.01
59043;BME280;44826;51.596;5.624;2022-12-29T02:54:58;99871.09;;;9.71;90.60
59043;BME280;44826;51.596;5.624;2022-12-29T03:02:49;99877.16;;;9.72;91.28
59043;BME280;44826;51.596;5.624;2022-12-29T03:05:33;99867.69;;;9.69;90.99
59043;BME280;44826;51.596;5.624;2022-12-29T03:08:09;99858.19;;;9.70;90.83
59043;BME280;44826;51.596;5.624;2022-12-29T03:19:10;99857.50;;;9.65;90.97
59043;BME280;44826;51.596;5.624;2022-12-29T03:21:44;99857.56;;;9.63;90.90
59043;BME280;44826;51.596;5.624;2022-12-29T03:24:34;99857.50;;;9.65;90.53
59043;BME280;44826;51.596;5.624;2022-12-29T03:27:04;99862.69;;;9.65;90.79
59043;BME280;44826;51.596;5.624;2022-12-29T03:29:34;99852.22;;;9.66;90.21
59043;BME280;44826;51.596;5.624;2022-12-29T03:32:01;99861.78;;;9.66;90.52
59043;BME280;44826;51.596;5.624;2022-12-29T03:34:28;99866.97;;;9.66;90.50
59043;BME280;44826;51.596;5.624;2022-12-29T03:37:00;99843.69;;;9.64;90.79
59043;BME280;44826;51.596;5.624;2022-12-29T03:39:28;99857.56;;;9.63;90.77
59043;BME280;44826;51.596;5.624;2022-12-29T03:42:04;99849.72;;;9.65;90.75
59043;BME280;44826;51.596;5.624;2022-12-29T03:44:36;99838.59;;;9.61;90.63
59043;BME280;44826;51.596;5.624;2022-12-29T03:47:03;99849.03;;;9.60;90.68
59043;BME280;44826;51.596;5.624;2022-12-29T03:49:28;99847.31;;;9.59;90.01
59043;BME280;44826;51.596;5.624;2022-12-29T03:51:53;99850.06;;;9.55;90.82
59043;BME280;44826;51.596;5.624;2022-12-29T03:54:19;99847.50;;;9.54;90.53
59043;BME280;44826;51.596;5.624;2022-12-29T03:56:44;99858.00;;;9.51;90.13
59043;BME280;44826;51.596;5.624;2022-12-29T03:59:09;99848.59;;;9.48;90.28
59043;BME280;44826;51.596;5.624;2022-12-29T04:01:35;99844.31;;;9.47;90.45
59043;BME280;44826;51.596;5.624;2022-12-29T04:04:00;99859.03;;;9.47;90.28
59043;BME280;44826;51.596;5.624;2022-12-29T04:06:25;99853.88;;;9.45;90.20
59043;BME280;44826;51.596;5.624;2022-12-29T04:08:50;99868.63;;;9.45;90.34
59043;BME280;44826;51.596;5.624;2022-12-29T04:11:16;99879.03;;;9.45;90.42
59043;BME280;44826;51.596;5.624;2022-12-29T04:13:41;99879.81;;;9.47;90.41
59043;BME280;44826;51.596;5.624;2022-12-29T04:16:07;99883.34;;;9.44;90.52
59043;BME280;44826;51.596;5.624;2022-12-29T04:18:33;99881.66;;;9.43;90.67
59043;BME280;44826;51.596;5.624;2022-12-29T04:20:58;99849.78;;;9.39;90.82
59043;BME280;44826;51.596;5.624;2022-12-29T04:23:28;99862.06;;;9.34;91.44
59043;BME280;44826;51.596;5.624;2022-12-29T04:25:54;99875.06;;;9.34;91.00
59043;BME280;44826;51.596;5.624;2022-12-29T04:28:19;99878.72;;;9.29;90.98
59043;BME280;44826;51.596;5.624;2022-12-29T04:30:45;99881.66;;;9.19;91.16
59043;BME280;44826;51.596;5.624;2022-12-29T04:33:11;99879.34;;;9.11;91.40
59043;BME280;44826;51.596;5.624;2022-12-29T04:35:36;99879.47;;;9.07;91.18
59043;BME280;44826;51.596;5.624;2022-12-29T04:38:01;99872.72;;;9.03;91.69
59043;BME280;44826;51.596;5.624;2022-12-29T04:40:27;99882.13;;;9.05;91.26
59043;BME280;44826;51.596;5.624;2022-12-29T04:42:52;99875.44;;;8.98;91.71
59043;BME280;44826;51.596;5.624;2022-12-29T04:45:17;99894.56;;;8.95;91.47
59043;BME280;44826;51.596;5.624;2022-12-29T04:47:43;99881.69;;;8.92;91.22
59043;BME280;44826;51.596;5.624;2022-12-29T04:50:08;99906.03;;;8.88;91.31
59043;BME280;44826;51.596;5.624;2022-12-29T04:52:34;99906.03;;;8.88;90.75
59043;BME280;44826;51.596;5.624;2022-12-29T04:55:00;99890.59;;;8.85;90.58
59043;BME280;44826;51.596;5.624;2022-12-29T04:57:25;99896.00;;;8.79;90.22
59043;BME280;44826;51.596;5.624;2022-12-29T04:59:50;99900.44;;;8.75;90.53
59043;BME280;44826;51.596;5.624;2022-12-29T05:02:16;99905.72;;;8.72;90.30
59043;BME280;44826;51.596;5.624;2022-12-29T05:04:42;99908.38;;;8.71;90.23
59043;BME280;44826;51.596;5.624;2022-12-29T05:07:08;99902.34;;;8.70;89.94
59043;BME280;44826;51.596;5.624;2022-12-29T05:09:33;99928.31;;;8.69;89.65
59043;BME280;44826;51.596;5.624;2022-12-29T05:11:58;99925.59;;;8.72;89.26
59043;BME280;44826;51.596;5.624;2022-12-29T05:14:24;99918.84;;;8.68;89.27
59043;BME280;44826;51.596;5.624;2022-12-29T05:16:49;99929.25;;;8.66;89.16
59043;BME280;44826;51.596;5.624;2022-12-29T05:19:14;99931.00;;;8.65;88.91
59043;BME280;44826;51.596;5.624;2022-12-29T05:21:40;99928.34;;;8.67;88.21
59043;BME280;44826;51.596;5.624;2022-12-29T05:24:05;99936.28;;;8.62;88.17
59043;BME280;44826;51.596;5.624;2022-12-29T05:26:31;99934.59;;;8.61;88.14
59043;BME280;44826;51.596;5.624;2022-12-29T05:28:56;99943.38;;;8.57;88.03
59043;BME280;44826;51.596;5.624;2022-12-29T05:31:21;99950.34;;;8.55;87.92
59043;BME280;44826;51.596;5.624;2022-12-29T05:33:46;99950.47;;;8.52;88.04
59043;BME280;44826;51.596;5.624;2022-12-29T05:36:12;99974.47;;;8.57;88.02
59043;BME280;44826;51.596;5.624;2022-12-29T05:38:37;99962.41;;;8.56;87.75
59043;BME280;44826;51.596;5.624;2022-12-29T05:41:03;99964.88;;;8.61;88.03
59043;BME280;44826;51.596;5.624;2022-12-29T05:43:28;99963.91;;;8.63;87.70
59043;BME280;44826;51.596;5.624;2022-12-29T05:45:54;99966.44;;;8.65;87.76
59043;BME280;44826;51.596;5.624;2022-12-29T05:48:20;99963.84;;;8.65;87.82
59043;BME280;44826;51.596;5.624;2022-12-29T05:50:49;99970.66;;;8.69;87.58
59043;BME280;44826;51.596;5.624;2022-12-29T05:53:15;99966.31;;;8.70;87.11
59043;BME280;44826;51.596;5.624;2022-12-29T05:55:40;99964.63;;;8.69;87.25
59043;BME280;44826;51.596;5.624;2022-12-29T05:58:05;99970.72;;;8.68;87.12
59043;BME280;44826;51.596;5.624;2022-12-29T06:00:30;99964.63;;;8.69;86.92
59043;BME280;44826;51.596;5.624;2022-12-29T06:02:56;99987.00;;;8.71;86.61
59043;BME280;44826;51.596;5.624;2022-12-29T06:05:21;99976.53;;;8.74;85.74
59043;BME280;44826;51.596;5.624;2022-12-29T06:07:46;99979.84;;;8.79;85.52
59043;BME280;44826;51.596;5.624;2022-12-29T06:10:12;99977.13;;;8.83;84.91
59043;BME280;44826;51.596;5.624;2022-12-29T06:12:37;99973.47;;;8.88;84.20
59043;BME280;44826;51.596;5.624;2022-12-29T06:15:03;99986.44;;;8.88;84.11
59043;BME280;44826;51.596;5.624;2022-12-29T06:17:28;99979.53;;;8.89;84.17
59043;BME280;44826;51.596;5.624;2022-12-29T06:19:54;99982.84;;;8.94;83.67
59043;BME280;44826;51.596;5.624;2022-12-29T06:22:19;99984.47;;;8.96;83.26
59043;BME280;44826;51.596;5.624;2022-12-29T06:24:44;99975.00;;;8.95;83.69
59043;BME280;44826;51.596;5.624;2022-12-29T06:27:09;99989.72;;;8.95;83.69
59043;BME280;44826;51.596;5.624;2022-12-29T06:29:35;99984.47;;;8.96;83.17
59043;BME280;44826;51.596;5.624;2022-12-29T06:32:02;99955.13;;;8.94;82.95
59043;BME280;44826;51.596;5.624;2022-12-29T06:34:28;99968.19;;;8.91;83.19
59043;BME280;44826;51.596;5.624;2022-12-29T06:36:53;99963.91;;;8.90;82.92
59043;BME280;44826;51.596;5.624;2022-12-29T06:39:19;99963.06;;;8.90;82.82
59043;BME280;44826;51.596;5.624;2022-12-29T06:41:44;99956.13;;;8.90;81.74
59043;BME280;44826;51.596;5.624;2022-12-29T06:44:09;99959.75;;;8.86;82.33
59043;BME280;44826;51.596;5.624;2022-12-29T06:46:35;99962.44;;;8.83;81.85
59043;BME280;44826;51.596;5.624;2022-12-29T06:49:00;99948.47;;;8.87;81.22
59043;BME280;44826;51.596;5.624;2022-12-29T06:51:25;99963.09;;;8.88;80.98
59043;BME280;44826;51.596;5.624;2022-12-29T06:53:51;99952.78;;;8.87;80.38
59043;BME280;44826;51.596;5.624;2022-12-29T06:56:16;99964.94;;;8.86;80.06
59043;BME280;44826;51.596;5.624;2022-12-29T06:58:41;99970.06;;;8.88;79.99
59043;BME280;44826;51.596;5.624;2022-12-29T07:01:06;99962.22;;;8.89;80.03
59043;BME280;44826;51.596;5.624;2022-12-29T07:03:32;99959.69;;;8.88;79.93
59043;BME280;44826;51.596;5.624;2022-12-29T07:05:57;99964.81;;;8.89;79.49
59043;BME280;44826;51.596;5.624;2022-12-29T07:08:23;99966.56;;;8.89;79.19
59043;BME280;44826;51.596;5.624;2022-12-29T07:10:48;99963.88;;;8.92;79.25
59043;BME280;44826;51.596;5.624;2022-12-29T07:13:14;99982.97;;;8.89;79.78
59043;BME280;44826;51.596;5.624;2022-12-29T07:15:39;99978.47;;;8.94;78.93
59043;BME280;44826;51.596;5.624;2022-12-29T07:18:04;99991.34;;;8.98;79.20
59043;BME280;44826;51.596;5.624;2022-12-29T07:20:30;99993.75;;;9.04;79.02
59043;BME280;44826;51.596;5.624;2022-12-29T07:22:55;99999.69;;;9.07;78.32
59043;BME280;44826;51.596;5.624;2022-12-29T07:25:21;99987.59;;;9.06;78.63
59043;BME280;44826;51.596;5.624;2022-12-29T07:27:47;100005.78;;;9.06;78.06
59043;BME280;44826;51.596;5.624;2022-12-29T07:30:12;100027.25;;;9.11;77.78
59043;BME280;44826;51.596;5.624;2022-12-29T07:32:37;100024.66;;;9.10;77.66
59043;BME280;44826;51.596;5.624;2022-12-29T07:35:03;100027.38;;;9.07;77.59
59043;BME280;44826;51.596;5.624;2022-12-29T07:37:28;100027.28;;;9.10;77.77
59043;BME280;44826;51.596;5.624;2022-12-29T07:39:54;100036.75;;;9.11;77.66
59043;BME280;44826;51.596;5.624;2022-12-29T07:42:19;100011.66;;;9.11;76.50
59043;BME280;44826;51.596;5.624;2022-12-29T07:44:44;100030.72;;;9.10;75.97
59043;BME280;44826;51.596;5.624;2022-12-29T07:47:09;100031.78;;;9.05;76.08
59043;BME280;44826;51.596;5.624;2022-12-29T07:49:35;100036.97;;;9.05;76.00
59043;BME280;44826;51.596;5.624;2022-12-29T07:52:00;100044.06;;;8.98;75.91
59043;BME280;44826;51.596;5.624;2022-12-29T07:54:25;100044.13;;;8.96;76.31
59043;BME280;44826;51.596;5.624;2022-12-29T07:56:50;100036.28;;;8.98;76.02
59043;BME280;44826;51.596;5.624;2022-12-29T07:59:16;100038.13;;;8.96;76.59
59043;BME280;44826;51.596;5.624;2022-12-29T08:01:41;100038.94;;;8.96;76.77
59043;BME280;44826;51.596;5.624;2022-12-29T08:04:06;100044.13;;;8.96;76.45
59043;BME280;44826;51.596;5.624;2022-12-29T08:06:32;100038.75;;;9.03;76.13
59043;BME280;44826;51.596;5.624;2022-12-29T08:08:57;100038.75;;;9.03;76.32
59043;BME280;44826;51.596;5.624;2022-12-29T08:11:23;100057.72;;;9.05;76.27
59043;BME280;44826;51.596;5.624;2022-12-29T08:13:48;100054.22;;;9.06;76.38
59043;BME280;44826;51.596;5.624;2022-12-29T08:16:14;100044.75;;;9.05;76.43
59043;BME280;44826;51.596;5.624;2022-12-29T08:18:39;100050.72;;;9.07;76.40
59043;BME280;44826;51.596;5.624;2022-12-29T08:21:05;100066.19;;;9.10;76.17
59043;BME280;44826;51.596;5.624;2022-12-29T08:23:31;100059.22;;;9.12;76.33
59043;BME280;44826;51.596;5.624;2022-12-29T08:25:58;100054.03;;;9.12;75.88
59043;BME280;44826;51.596;5.624;2022-12-29T08:28:23;100059.13;;;9.15;75.54
59043;BME280;44826;51.596;5.624;2022-12-29T08:30:48;100066.81;;;9.18;75.33
59043;BME280;44826;51.596;5.624;2022-12-29T08:33:13;100059.75;;;9.22;74.78
59043;BME280;44826;51.596;5.624;2022-12-29T08:35:39;100075.97;;;9.29;73.56
59043;BME280;44826;51.596;5.624;2022-12-29T08:38:04;100060.47;;;9.27;73.75
59043;BME280;44826;51.596;5.624;2022-12-29T08:40:30;100065.75;;;9.24;73.52
59043;BME280;44826;51.596;5.624;2022-12-29T08:42:55;100065.69;;;9.25;73.84
59043;BME280;44826;51.596;5.624;2022-12-29T08:45:20;100067.38;;;9.26;74.02
59043;BME280;44826;51.596;5.624;2022-12-29T08:47:45;100070.78;;;9.29;73.58
59043;BME280;44826;51.596;5.624;2022-12-29T08:50:11;100075.06;;;9.30;73.82
59043;BME280;44826;51.596;5.624;2022-12-29T08:52:36;100075.00;;;9.31;73.72
59043;BME280;44826;51.596;5.624;2022-12-29T08:55:01;100068.16;;;9.30;73.85
59043;BME280;44826;51.596;5.624;2022-12-29T08:57:26;100080.09;;;9.36;73.45
59043;BME280;44826;51.596;5.624;2022-12-29T08:59:52;100072.19;;;9.39;73.40
59043;BME280;44826;51.596;5.624;2022-12-29T09:02:17;100067.91;;;9.38;73.20
59043;BME280;44826;51.596;5.624;2022-12-29T09:04:42;100059.09;;;9.42;72.95
59043;BME280;44826;51.596;5.624;2022-12-29T09:07:07;100056.50;;;9.42;73.07
59043;BME280;44826;51.596;5.624;2022-12-29T09:09:33;100068.56;;;9.43;73.07
59043;BME280;44826;51.596;5.624;2022-12-29T09:11:58;100066.69;;;9.48;73.09
59043;BME280;44826;51.596;5.624;2022-12-29T09:14:23;100064.88;;;9.50;72.12
59043;BME280;44826;51.596;5.624;2022-12-29T09:16:51;100076.97;;;9.51;72.22
59043;BME280;44826;51.596;5.624;2022-12-29T09:19:35;100078.78;;;9.49;72.92
59043;BME280;44826;51.596;5.624;2022-12-29T09:22:00;100082.16;;;9.51;72.33
59043;BME280;44826;51.596;5.624;2022-12-29T09:24:26;100073.47;;;9.52;72.43
59043;BME280;44826;51.596;5.624;2022-12-29T09:26:51;100088.97;;;9.55;72.61
59043;BME280;44826;51.596;5.624;2022-12-29T09:29:16;100095.81;;;9.56;72.87
59043;BME280;44826;51.596;5.624;2022-12-29T09:31:41;100078.34;;;9.62;72.02
59043;BME280;44826;51.596;5.624;2022-12-29T09:34:06;100110.38;;;9.62;72.45
59043;BME280;44826;51.596;5.624;2022-12-29T09:36:32;100114.50;;;9.68;72.85
59043;BME280;44826;51.596;5.624;2022-12-29T09:38:57;100098.31;;;9.60;74.02
59043;BME280;44826;51.596;5.624;2022-12-29T09:41:29;100104.66;;;9.51;74.26
59043;BME280;44826;51.596;5.624;2022-12-29T09:44:04;100114.22;;;9.50;74.22
59043;BME280;44826;51.596;5.624;2022-12-29T09:49:22;100123.81;;;9.48;74.14
59043;BME280;44826;51.596;5.624;2022-12-29T09:51:54;100113.22;;;9.54;74.08
59043;BME280;44826;51.596;5.624;2022-12-29T09:56:52;100140.75;;;9.59;73.63
59043;BME280;44826;51.596;5.624;2022-12-29T09:59:20;100137.50;;;9.53;74.31
59043;BME280;44826;51.596;5.624;2022-12-29T10:04:33;100147.97;;;9.50;75.35
59043;BME280;44826;51.596;5.624;2022-12-29T10:07:21;100147.97;;;9.50;75.37
59043;BME280;44826;51.596;5.624;2022-12-29T10:10:03;100161.84;;;9.49;75.30
59043;BME280;44826;51.596;5.624;2022-12-29T10:12:56;100175.00;;;9.45;75.69
59043;BME280;44826;51.596;5.624;2022-12-29T10:23:29;100193.88;;;9.21;78.65
59043;BME280;44826;51.596;5.624;2022-12-29T10:25:58;100193.09;;;9.18;78.85
59043;BME280;44826;51.596;5.624;2022-12-29T10:28:37;100186.41;;;9.10;79.72
59043;BME280;44826;51.596;5.624;2022-12-29T10:31:13;100213.19;;;9.11;79.72
59043;BME280;44826;51.596;5.624;2022-12-29T10:33:42;100214.97;;;9.10;80.43
59043;BME280;44826;51.596;5.624;2022-12-29T10:39:05;100227.22;;;9.05;80.74
59043;BME280;44826;51.596;5.624;2022-12-29T10:41:39;100227.38;;;8.99;81.25
59043;BME280;44826;51.596;5.624;2022-12-29T10:44:09;100235.31;;;8.94;82.72
59043;BME280;44826;51.596;5.624;2022-12-29T10:46:37;100236.28;;;8.90;83.24
59043;BME280;44826;51.596;5.624;2022-12-29T10:49:04;100231.28;;;8.84;83.79
59043;BME280;44826;51.596;5.624;2022-12-29T10:51:32;100241.75;;;8.81;83.84
59043;BME280;44826;51.596;5.624;2022-12-29T10:54:04;100240.94;;;8.79;84.48
59043;BME280;44826;51.596;5.624;2022-12-29T10:56:35;100235.00;;;8.74;85.08
59043;BME280;44826;51.596;5.624;2022-12-29T10:59:29;100253.91;;;8.79;84.23
59043;BME280;44826;51.596;5.624;2022-12-29T11:07:08;100259.25;;;8.73;84.67
59043;BME280;44826;51.596;5.624;2022-12-29T11:09:36;100270.34;;;8.78;84.29
59043;BME280;44826;51.596;5.624;2022-12-29T11:12:27;100272.06;;;8.79;84.23
59043;BME280;44826;51.596;5.624;2022-12-29T11:15:02;100272.91;;;8.79;84.20
59043;BME280;44826;51.596;5.624;2022-12-29T11:17:27;100277.19;;;8.80;84.50
59043;BME280;44826;51.596;5.624;2022-12-29T11:19:53;100276.41;;;8.78;84.75
59043;BME280;44826;51.596;5.624;2022-12-29T11:22:27;100291.22;;;8.73;85.33
59043;BME280;44826;51.596;5.624;2022-12-29T11:24:54;100275.69;;;8.72;85.86
59043;BME280;44826;51.596;5.624;2022-12-29T11:27:25;100281.69;;;8.74;85.27
59043;BME280;44826;51.596;5.624;2022-12-29T11:29:52;100283.59;;;8.69;85.72
59043;BME280;44826;51.596;5.624;2022-12-29T11:32:23;100288.78;;;8.69;85.75
59043;BME280;44826;51.596;5.624;2022-12-29T11:34:49;100290.47;;;8.70;85.40
59043;BME280;44826;51.596;5.624;2022-12-29T11:37:31;100295.66;;;8.70;85.43
59043;BME280;44826;51.596;5.624;2022-12-29T11:40:18;100300.75;;;8.73;85.41
59043;BME280;44826;51.596;5.624;2022-12-29T11:42:53;100307.53;;;8.78;85.06
59043;BME280;44826;51.596;5.624;2022-12-29T11:45:21;100314.28;;;8.84;84.68
59043;BME280;44826;51.596;5.624;2022-12-29T11:47:53;100299.56;;;8.85;84.62
59043;BME280;44826;51.596;5.624;2022-12-29T11:50:25;100296.94;;;8.86;84.35
59043;BME280;44826;51.596;5.624;2022-12-29T11:52:59;100302.13;;;8.86;84.28
59043;BME280;44826;51.596;5.624;2022-12-29T11:55:26;100296.94;;;8.86;84.27
59043;BME280;44826;51.596;5.624;2022-12-29T11:57:54;100306.31;;;8.90;84.09
59043;BME280;44826;51.596;5.624;2022-12-29T12:00:23;100310.63;;;8.91;83.97
59043;BME280;44826;51.596;5.624;2022-12-29T12:05:33;100307.91;;;8.96;83.45
59043;BME280;44826;51.596;5.624;2022-12-29T12:08:15;100317.44;;;8.95;83.69
59043;BME280;44826;51.596;5.624;2022-12-29T12:11:15;100322.56;;;8.97;83.52
59043;BME280;44826;51.596;5.624;2022-12-29T12:16:22;100324.25;;;9.00;83.17
59043;BME280;44826;51.596;5.624;2022-12-29T12:19:00;100313.88;;;9.00;83.16
59043;BME280;44826;51.596;5.624;2022-12-29T12:24:28;100317.81;;;9.13;82.29
59043;BME280;44826;51.596;5.624;2022-12-29T12:27:03;100326.53;;;9.10;81.77
59043;BME280;44826;51.596;5.624;2022-12-29T12:32:39;100331.75;;;9.09;80.98
59043;BME280;44826;51.596;5.624;2022-12-29T12:35:12;100323.97;;;9.09;81.09
59043;BME280;44826;51.596;5.624;2022-12-29T12:37:50;100324.97;;;9.05;80.42
59043;BME280;44826;51.596;5.624;2022-12-29T12:40:43;100322.28;;;9.08;81.16
59043;BME280;44826;51.596;5.624;2022-12-29T12:43:44;100327.31;;;9.14;80.98
59043;BME280;44826;51.596;5.624;2022-12-29T12:46:33;100328.94;;;9.17;80.76
59043;BME280;44826;51.596;5.624;2022-12-29T12:49:15;100313.28;;;9.21;80.13
59043;BME280;44826;51.596;5.624;2022-12-29T12:51:56;100327.75;;;9.29;79.50
59043;BME280;44826;51.596;5.624;2022-12-29T12:57:35;100323.09;;;9.40;78.52
59043;BME280;44826;51.596;5.624;2022-12-29T13:00:09;100328.13;;;9.46;77.42
59043;BME280;44826;51.596;5.624;2022-12-29T13:05:25;100339.16;;;9.54;76.88
59043;BME280;44826;51.596;5.624;2022-12-29T13:16:26;100345.13;;;9.56;75.57
59043;BME280;44826;51.596;5.624;2022-12-29T13:19:11;100334.72;;;9.56;76.13
59043;BME280;44826;51.596;5.624;2022-12-29T13:22:06;100344.38;;;9.53;75.86
59043;BME280;44826;51.596;5.624;2022-12-29T13:24:43;100354.09;;;9.46;78.49
59043;BME280;44826;51.596;5.624;2022-12-29T13:27:36;100356.06;;;9.38;78.59
59043;BME280;44826;51.596;5.624;2022-12-29T13:30:09;100358.06;;;9.28;79.79
59043;BME280;44826;51.596;5.624;2022-12-29T13:32:59;100372.22;;;9.16;81.44
59043;BME280;44826;51.596;5.624;2022-12-29T13:38:33;100369.47;;;8.89;83.45
59043;BME280;44826;51.596;5.624;2022-12-29T13:41:07;100381.81;;;8.81;83.89
59043;BME280;44826;51.596;5.624;2022-12-29T13:43:35;100392.38;;;8.73;84.67
59043;BME280;44826;51.596;5.624;2022-12-29T13:46:11;100384.72;;;8.69;85.33
59043;BME280;44826;51.596;5.624;2022-12-29T13:48:43;100383.94;;;8.65;86.31
59043;BME280;44826;51.596;5.624;2022-12-29T13:51:11;100382.28;;;8.62;85.93
59043;BME280;44826;51.596;5.624;2022-12-29T13:53:49;100385.69;;;8.63;86.36
59043;BME280;44826;51.596;5.624;2022-12-29T13:59:08;100378.84;;;8.62;85.91
59043;BME280;44826;51.596;5.624;2022-12-29T14:01:53;100379.00;;;8.54;86.61
59043;BME280;44826;51.596;5.624;2022-12-29T14:04:24;100389.47;;;8.51;86.60
59043;BME280;44826;51.596;5.624;2022-12-29T14:07:02;100391.25;;;8.49;86.25
59043;BME280;44826;51.596;5.624;2022-12-29T14:09:48;100389.63;;;8.43;86.84
59043;BME280;44826;51.596;5.624;2022-12-29T14:12:36;100398.31;;;8.41;86.56
59043;BME280;44826;51.596;5.624;2022-12-29T14:15:19;100389.72;;;8.39;86.98
59043;BME280;44826;51.596;5.624;2022-12-29T14:18:01;100399.19;;;8.40;87.12
59043;BME280;44826;51.596;5.624;2022-12-29T14:20:27;100392.13;;;8.46;87.36
59043;BME280;44826;51.596;5.624;2022-12-29T14:22:58;100398.09;;;8.52;87.54
59043;BME280;44826;51.596;5.624;2022-12-29T14:28:24;100399.84;;;8.51;86.72
59043;BME280;44826;51.596;5.624;2022-12-29T14:30:52;100396.41;;;8.47;86.83
59043;BME280;44826;51.596;5.624;2022-12-29T14:33:19;100396.53;;;8.43;87.07
59043;BME280;44826;51.596;5.624;2022-12-29T14:35:46;100390.53;;;8.41;87.34
59043;BME280;44826;51.596;5.624;2022-12-29T14:38:25;100395.78;;;8.39;87.13
59043;BME280;44826;51.596;5.624;2022-12-29T14:40:51;100394.13;;;8.35;87.39
59043;BME280;44826;51.596;5.624;2022-12-29T14:43:20;100402.78;;;8.34;86.92
59043;BME280;44826;51.596;5.624;2022-12-29T14:46:13;100414.09;;;8.31;86.82
59043;BME280;44826;51.596;5.624;2022-12-29T14:48:42;100408.13;;;8.28;87.02
59043;BME280;44826;51.596;5.624;2022-12-29T14:51:27;100400.38;;;8.26;86.83